createdAt,value
2022-10-01T00:01:38.221Z,93.40
2022-10-01T00:04:41.593Z,93.50
2022-10-01T00:07:45.745Z,93.43
2022-10-01T00:10:48.697Z,93.59
2022-10-01T00:13:53.663Z,93.73
2022-10-01T00:16:56.800Z,93.56
2022-10-01T00:19:59.786Z,93.33
2022-10-01T00:23:02.682Z,93.08
2022-10-01T00:26:11.528Z,93.35
2022-10-01T00:29:15.842Z,93.06
2022-10-01T00:32:18.762Z,93.26
2022-10-01T00:35:22.959Z,93.27
2022-10-01T00:38:26.124Z,93.77
2022-10-01T00:41:32.231Z,93.64
2022-10-01T00:44:37.336Z,93.90
2022-10-01T00:47:44.355Z,93.39
2022-10-01T00:50:49.377Z,93.56
2022-10-01T00:53:54.835Z,94.03
2022-10-01T00:56:59.794Z,94.00
2022-10-01T01:00:06.677Z,94.02
2022-10-01T01:03:11.060Z,93.66
2022-10-01T01:06:13.998Z,93.55
2022-10-01T01:09:17.229Z,93.83
2022-10-01T01:12:33.984Z,93.34
2022-10-01T01:15:53.346Z,93.43
2022-10-01T01:19:22.767Z,93.47
2022-10-01T01:22:30.320Z,93.44
2022-10-01T01:26:00.807Z,93.54
2022-10-01T01:29:13.734Z,93.39
2022-10-01T01:32:27.635Z,94.09
2022-10-01T01:35:48.369Z,94.22
2022-10-01T01:38:56.174Z,94.42
2022-10-01T01:42:05.401Z,94.20
2022-10-01T01:45:13.840Z,94.39
2022-10-01T01:48:16.865Z,94.48
2022-10-01T01:51:32.655Z,94.14
2022-10-01T01:54:36.992Z,94.37
2022-10-01T01:57:42.514Z,94.60
2022-10-01T02:00:52.587Z,94.72
2022-10-01T02:03:55.530Z,94.41
2022-10-01T02:06:58.491Z,94.61
2022-10-01T02:10:24.279Z,94.37
2022-10-01T02:13:45.893Z,94.35
2022-10-01T02:17:02.237Z,94.25
2022-10-01T02:20:18.658Z,94.20
2022-10-01T02:23:27.696Z,94.03
2022-10-01T02:26:32.927Z,94.09
2022-10-01T02:29:38.090Z,94.09
2022-10-01T02:32:44.689Z,93.95
2022-10-01T02:35:50.377Z,93.87
2022-10-01T02:38:56.950Z,94.18
2022-10-01T02:42:02.924Z,94.02
2022-10-01T02:45:07.702Z,93.72
2022-10-01T02:48:12.424Z,93.60
2022-10-01T02:51:18.125Z,93.77
2022-10-01T02:54:52.039Z,93.59
2022-10-01T02:57:58.374Z,93.40
2022-10-01T03:01:01.268Z,93.87
2022-10-01T03:04:04.334Z,93.50
2022-10-01T03:07:07.380Z,93.20
2022-10-01T03:10:11.732Z,93.02
2022-10-01T03:13:14.996Z,93.35
2022-10-01T03:16:17.931Z,93.22
2022-10-01T03:19:21.350Z,93.46
2022-10-01T03:22:24.507Z,93.31
2022-10-01T03:25:27.355Z,93.45
2022-10-01T03:28:30.762Z,93.61
2022-10-01T03:31:34.028Z,93.62
2022-10-01T03:34:37.189Z,93.54
2022-10-01T03:37:40.166Z,93.79
2022-10-01T03:40:43.032Z,93.80
2022-10-01T03:43:45.933Z,93.80
2022-10-01T03:46:49.093Z,93.53
2022-10-01T03:49:51.947Z,93.44
2022-10-01T03:52:54.666Z,93.72
2022-10-01T03:56:01.258Z,93.70
2022-10-01T03:59:04.178Z,93.36
2022-10-01T04:02:07.882Z,93.33
2022-10-01T04:05:10.946Z,93.52
2022-10-01T04:08:14.517Z,93.29
2022-10-01T04:11:17.191Z,93.83
2022-10-01T04:14:19.967Z,94.07
2022-10-01T04:17:22.613Z,94.26
2022-10-01T04:20:26.260Z,93.49
2022-10-01T04:23:29.015Z,94.16
2022-10-01T04:26:31.744Z,94.21
2022-10-01T04:29:39.955Z,94.02
2022-10-01T04:32:43.001Z,94.07
2022-10-01T04:35:46.140Z,94.26
2022-10-01T04:38:58.191Z,94.09
2022-10-01T04:42:04.664Z,94.23
2022-10-01T04:45:08.201Z,94.19
2022-10-01T04:48:10.866Z,94.01
2022-10-01T04:51:13.672Z,94.17
2022-10-01T04:54:16.648Z,94.45
2022-10-01T04:57:22.647Z,94.06
2022-10-01T05:00:26.739Z,93.92
2022-10-01T05:03:29.447Z,93.68
2022-10-01T05:06:32.100Z,93.33
2022-10-01T05:09:35.241Z,93.32
2022-10-01T05:12:37.993Z,93.47
2022-10-01T05:15:41.377Z,93.03
2022-10-01T05:18:44.170Z,92.98
2022-10-01T05:21:46.820Z,93.00
2022-10-01T05:24:49.517Z,92.96
2022-10-01T05:27:52.277Z,92.85
2022-10-01T05:30:56.549Z,92.81
2022-10-01T05:33:59.260Z,92.57
2022-10-01T05:37:02.954Z,92.80
2022-10-01T05:40:06.115Z,92.72
2022-10-01T05:43:09.528Z,92.12
2022-10-01T05:46:12.294Z,92.12
2022-10-01T05:49:16.315Z,91.38
2022-10-01T05:52:19.088Z,91.35
2022-10-01T05:55:23.188Z,90.70
2022-10-01T05:58:26.287Z,89.91
2022-10-01T06:01:29.351Z,90.15
2022-10-01T06:04:32.121Z,90.55
2022-10-01T06:07:34.753Z,90.22
2022-10-01T06:10:38.293Z,89.35
2022-10-01T06:13:45.373Z,89.03
2022-10-01T06:16:48.302Z,88.59
2022-10-01T06:19:51.816Z,88.32
2022-10-01T06:22:56.459Z,89.14
2022-10-01T06:26:01.553Z,88.04
2022-10-01T06:29:04.299Z,88.31
2022-10-01T06:32:08.109Z,87.12
2022-10-01T06:35:10.873Z,86.99
2022-10-01T06:38:14.270Z,85.01
2022-10-01T06:41:19.944Z,85.76
2022-10-01T06:44:22.663Z,84.12
2022-10-01T06:47:26.535Z,84.58
2022-10-01T06:50:32.376Z,84.16
2022-10-01T06:53:35.129Z,85.12
2022-10-01T06:56:38.019Z,86.18
2022-10-01T06:59:43.080Z,86.71
2022-10-01T07:02:45.811Z,87.38
2022-10-01T07:05:49.731Z,86.13
2022-10-01T07:08:52.604Z,85.96
2022-10-01T07:11:57.338Z,84.44
2022-10-01T07:15:00.196Z,83.23
2022-10-01T07:18:03.379Z,83.10
2022-10-01T07:21:06.319Z,80.69
2022-10-01T07:24:09.146Z,79.84
2022-10-01T07:27:13.139Z,78.02
2022-10-01T07:30:16.118Z,77.56
2022-10-01T07:33:19.248Z,79.40
2022-10-01T07:36:21.957Z,78.16
2022-10-01T07:39:24.916Z,77.99
2022-10-01T07:42:27.811Z,72.47
2022-10-01T07:45:30.662Z,75.17
2022-10-01T07:48:33.665Z,75.68
2022-10-01T07:51:36.903Z,63.79
2022-10-01T07:54:39.695Z,60.93
2022-10-01T07:57:42.438Z,59.75
2022-10-01T08:00:45.342Z,52.16
2022-10-01T08:03:49.634Z,50.81
2022-10-01T08:06:53.522Z,45.71
2022-10-01T08:09:57.809Z,44.53
2022-10-01T08:13:02.152Z,42.62
2022-10-01T08:16:06.560Z,44.21
2022-10-01T08:19:09.345Z,42.42
2022-10-01T08:22:12.409Z,41.67
2022-10-01T08:25:15.222Z,46.41
2022-10-01T08:28:18.359Z,45.68
2022-10-01T08:31:21.188Z,45.06
2022-10-01T08:34:23.996Z,44.60
2022-10-01T08:37:28.645Z,42.00
2022-10-01T08:40:38.375Z,41.52
2022-10-01T08:43:42.193Z,47.58
2022-10-01T08:46:45.828Z,51.00
2022-10-01T08:49:54.405Z,51.85
2022-10-01T08:53:02.782Z,45.77
2022-10-01T08:56:18.007Z,55.15
2022-10-01T08:59:56.470Z,60.39
2022-10-01T09:03:04.447Z,61.09
2022-10-01T09:06:13.612Z,57.83
2022-10-01T09:09:50.117Z,43.95
2022-10-01T09:13:08.078Z,40.90
2022-10-01T09:16:17.079Z,47.18
2022-10-01T09:19:40.795Z,51.49
2022-10-01T09:23:12.345Z,54.47
2022-10-01T09:26:15.216Z,56.25
2022-10-01T09:29:27.627Z,57.45
2022-10-01T09:32:38.664Z,62.06
2022-10-01T09:35:54.827Z,63.74
2022-10-01T09:39:41.035Z,69.07
2022-10-01T09:42:44.112Z,66.64
2022-10-01T09:45:47.496Z,67.21
2022-10-01T09:49:09.101Z,70.17
2022-10-01T09:52:21.789Z,69.68
2022-10-01T09:55:37.819Z,67.76
2022-10-01T09:58:47.628Z,67.81
2022-10-01T10:01:54.196Z,67.29
2022-10-01T10:05:05.747Z,66.77
2022-10-01T10:08:16.285Z,67.81
2022-10-01T10:11:25.762Z,66.61
2022-10-01T10:14:37.789Z,66.14
2022-10-01T10:17:44.338Z,68.31
2022-10-01T10:20:51.986Z,67.94
2022-10-01T10:24:06.948Z,67.15
2022-10-01T10:27:26.845Z,69.40
2022-10-01T10:30:29.908Z,68.92
2022-10-01T10:33:32.714Z,70.28
2022-10-01T10:36:38.044Z,71.50
2022-10-01T10:39:46.710Z,69.77
2022-10-01T10:42:51.842Z,70.97
2022-10-01T10:45:56.989Z,70.49
2022-10-01T10:49:05.954Z,71.94
2022-10-01T10:52:38.876Z,74.48
2022-10-01T10:55:55.551Z,75.73
2022-10-01T10:59:10.372Z,75.35
2022-10-01T11:02:21.386Z,73.45
2022-10-01T11:05:30.074Z,74.82
2022-10-01T11:08:33.482Z,74.83
2022-10-01T11:11:42.422Z,74.79
2022-10-01T11:14:45.275Z,75.70
2022-10-01T11:18:19.958Z,76.23
2022-10-01T11:21:37.512Z,77.96
2022-10-01T11:24:52.458Z,77.13
2022-10-01T11:28:43.109Z,78.38
2022-10-01T11:32:11.208Z,79.91
2022-10-01T11:35:34.130Z,81.04
2022-10-01T11:38:58.786Z,80.76
2022-10-01T11:42:10.561Z,82.37
2022-10-01T11:45:21.653Z,82.10
2022-10-01T11:48:39.484Z,82.74
2022-10-01T11:51:49.253Z,83.96
2022-10-01T11:54:56.308Z,84.06
2022-10-01T11:58:35.943Z,85.34
2022-10-01T12:01:45.377Z,84.96
2022-10-01T12:04:58.265Z,85.19
2022-10-01T12:08:09.143Z,84.99
2022-10-01T12:11:27.175Z,84.92
2022-10-01T12:15:17.993Z,85.14
2022-10-01T12:18:36.212Z,85.31
2022-10-01T12:21:44.444Z,86.09
2022-10-01T12:24:48.146Z,86.49
2022-10-01T12:28:01.378Z,86.90
2022-10-01T12:31:14.043Z,87.06
2022-10-01T12:34:40.850Z,86.76
2022-10-01T12:38:05.820Z,86.71
2022-10-01T12:41:26.761Z,87.09
2022-10-01T12:44:56.628Z,85.49
2022-10-01T12:48:17.878Z,84.13
2022-10-01T12:51:48.946Z,83.25
2022-10-01T12:55:00.483Z,82.24
2022-10-01T12:58:12.798Z,81.93
2022-10-01T13:01:34.636Z,81.33
2022-10-01T13:04:37.667Z,81.43
2022-10-01T13:07:58.439Z,76.10
2022-10-01T13:11:28.484Z,73.70
2022-10-01T13:14:33.385Z,70.90
2022-10-01T13:17:47.783Z,66.19
2022-10-01T13:21:33.085Z,61.85
2022-10-01T13:24:53.328Z,60.64
2022-10-01T13:28:05.637Z,52.23
2022-10-01T13:31:19.221Z,48.85
2022-10-01T13:34:31.880Z,51.77
2022-10-01T13:37:40.110Z,50.35
2022-10-01T13:40:43.900Z,49.08
2022-10-01T13:44:09.523Z,47.95
2022-10-01T13:47:13.476Z,47.83
2022-10-01T13:50:25.009Z,48.13
2022-10-01T13:53:28.942Z,46.08
2022-10-01T13:56:36.825Z,46.02
2022-10-01T13:59:39.779Z,44.51
2022-10-01T14:03:05.418Z,54.21
2022-10-01T14:06:37.310Z,53.58
2022-10-01T14:09:47.547Z,48.90
2022-10-01T14:13:09.873Z,46.72
2022-10-01T14:16:13.244Z,44.48
2022-10-01T14:19:21.807Z,47.98
2022-10-01T14:22:47.860Z,48.31
2022-10-01T14:26:19.851Z,45.03
2022-10-01T14:29:31.526Z,46.81
2022-10-01T14:32:44.502Z,48.02
2022-10-01T14:36:09.211Z,46.97
2022-10-01T14:39:16.292Z,46.95
2022-10-01T14:42:19.026Z,48.51
2022-10-01T14:45:22.223Z,46.73
2022-10-01T14:48:27.460Z,49.65
2022-10-01T14:51:31.032Z,49.65
2022-10-01T14:55:01.032Z,54.89
2022-10-01T14:58:05.283Z,62.26
2022-10-01T15:01:14.244Z,65.43
2022-10-01T15:04:22.134Z,66.01
2022-10-01T15:07:28.142Z,68.26
2022-10-01T15:10:31.455Z,68.36
2022-10-01T15:13:38.714Z,69.88
2022-10-01T15:16:41.539Z,69.88
2022-10-01T15:19:47.289Z,71.48
2022-10-01T15:23:00.405Z,72.12
2022-10-01T15:26:08.834Z,72.93
2022-10-01T15:29:16.912Z,74.56
2022-10-01T15:32:25.500Z,74.32
2022-10-01T15:35:28.347Z,75.06
2022-10-01T15:38:32.467Z,75.55
2022-10-01T15:41:35.306Z,76.73
2022-10-01T15:44:49.391Z,77.39
2022-10-01T15:47:56.888Z,77.55
2022-10-01T15:51:07.252Z,78.30
2022-10-01T15:54:15.725Z,79.24
2022-10-01T15:57:20.872Z,79.26
2022-10-01T16:00:27.750Z,80.29
2022-10-01T16:03:53.794Z,81.03
2022-10-01T16:06:56.530Z,81.94
2022-10-01T16:10:12.235Z,83.00
2022-10-01T16:13:36.421Z,83.34
2022-10-01T16:16:39.169Z,83.85
2022-10-01T16:19:41.849Z,85.37
2022-10-01T16:22:44.631Z,85.52
2022-10-01T16:25:47.539Z,86.08
2022-10-01T16:28:55.018Z,86.20
2022-10-01T16:31:57.847Z,86.01
2022-10-01T16:35:24.552Z,86.53
2022-10-01T16:38:27.247Z,87.13
2022-10-01T16:41:30.207Z,87.30
2022-10-01T16:44:34.503Z,88.05
2022-10-01T16:47:41.560Z,88.23
2022-10-01T16:50:46.530Z,88.25
2022-10-01T16:53:50.253Z,89.17
2022-10-01T16:56:55.456Z,89.74
2022-10-01T16:59:58.319Z,88.94
2022-10-01T17:03:01.308Z,89.89
2022-10-01T17:06:04.101Z,89.65
2022-10-01T17:09:07.682Z,89.91
2022-10-01T17:12:10.469Z,89.32
2022-10-01T17:15:17.494Z,89.74
2022-10-01T17:18:21.418Z,89.72
2022-10-01T17:21:24.154Z,90.06
2022-10-01T17:24:27.562Z,89.99
2022-10-01T17:27:30.274Z,89.91
2022-10-01T17:30:33.336Z,90.26
2022-10-01T17:33:36.629Z,90.48
2022-10-01T17:36:39.910Z,90.30
2022-10-01T17:39:43.258Z,90.21
2022-10-01T17:42:46.038Z,90.24
2022-10-01T17:45:59.479Z,90.37
2022-10-01T17:49:02.278Z,91.04
2022-10-01T17:52:05.990Z,90.75
2022-10-01T17:55:09.348Z,90.13
2022-10-01T17:58:12.176Z,90.46
2022-10-01T18:01:22.915Z,90.33
2022-10-01T18:04:26.079Z,90.21
2022-10-01T18:07:28.905Z,89.99
2022-10-01T18:10:31.645Z,89.96
2022-10-01T18:13:35.899Z,90.22
2022-10-01T18:16:39.116Z,90.30
2022-10-01T18:19:57.588Z,90.16
2022-10-01T18:23:00.321Z,90.24
2022-10-01T18:26:03.980Z,90.62
2022-10-01T18:29:06.741Z,90.34
2022-10-01T18:32:09.416Z,89.99
2022-10-01T18:35:19.373Z,90.13
2022-10-01T18:38:30.033Z,89.98
2022-10-01T18:41:38.618Z,90.14
2022-10-01T18:44:41.822Z,90.18
2022-10-01T18:48:04.233Z,90.76
2022-10-01T18:51:19.018Z,90.95
2022-10-01T18:54:40.118Z,92.07
2022-10-01T18:57:45.943Z,92.88
2022-10-01T19:01:15.743Z,93.46
2022-10-01T19:04:52.350Z,93.02
2022-10-01T19:08:24.745Z,93.01
2022-10-01T19:11:58.956Z,92.68
2022-10-01T19:15:22.325Z,92.69
2022-10-01T19:18:41.603Z,92.59
2022-10-01T19:21:59.442Z,92.22
2022-10-01T19:25:25.992Z,92.51
2022-10-01T19:28:50.449Z,93.00
2022-10-01T19:31:53.175Z,93.10
2022-10-01T19:35:23.298Z,92.86
2022-10-01T19:38:40.837Z,93.22
2022-10-01T19:42:05.924Z,93.75
2022-10-01T19:45:40.108Z,93.73
2022-10-01T19:49:04.967Z,93.75
2022-10-01T19:52:18.351Z,93.98
2022-10-01T19:55:23.721Z,93.91
2022-10-01T19:58:27.712Z,93.66
2022-10-01T20:01:38.736Z,93.33
2022-10-01T20:04:51.974Z,93.21
2022-10-01T20:08:11.332Z,92.87
2022-10-01T20:11:39.852Z,92.43
2022-10-01T20:15:06.868Z,91.96
2022-10-01T20:18:33.037Z,90.00
2022-10-01T20:22:07.427Z,88.58
2022-10-01T20:25:31.427Z,89.32
2022-10-01T20:28:48.165Z,87.72
2022-10-01T20:32:27.027Z,87.08
2022-10-01T20:35:49.703Z,88.25
2022-10-01T20:39:04.379Z,89.15
2022-10-01T20:42:14.513Z,88.36
2022-10-01T20:45:28.900Z,88.71
2022-10-01T20:48:37.751Z,85.35
2022-10-01T20:51:58.334Z,86.76
2022-10-01T20:55:06.892Z,85.44
2022-10-01T20:58:19.410Z,83.11
2022-10-01T21:01:25.281Z,85.54
2022-10-01T21:04:40.846Z,86.35
2022-10-01T21:08:06.889Z,84.50
2022-10-01T21:11:17.147Z,86.81
2022-10-01T21:14:25.409Z,86.70
2022-10-01T21:17:41.677Z,86.94
2022-10-01T21:20:48.126Z,86.21
2022-10-01T21:24:17.312Z,86.65
2022-10-01T21:27:28.761Z,86.68
2022-10-01T21:31:00.436Z,81.49
2022-10-01T21:34:17.710Z,81.89
2022-10-01T21:37:27.753Z,82.40
2022-10-01T21:40:46.379Z,79.27
2022-10-01T21:44:10.880Z,80.50
2022-10-01T21:47:32.310Z,83.21
2022-10-01T21:50:38.862Z,84.42
2022-10-01T21:54:10.699Z,84.82
2022-10-01T21:57:43.266Z,85.91
2022-10-01T22:01:30.258Z,86.60
2022-10-01T22:04:58.254Z,86.56
2022-10-01T22:08:22.204Z,86.46
2022-10-01T22:11:29.753Z,83.28
2022-10-01T22:14:32.468Z,84.13
2022-10-01T22:17:35.235Z,83.00
2022-10-01T22:20:41.262Z,83.93
2022-10-01T22:23:53.364Z,83.13
2022-10-01T22:27:07.085Z,84.77
2022-10-01T22:30:12.343Z,83.57
2022-10-01T22:33:21.306Z,84.32
2022-10-01T22:36:33.375Z,84.83
2022-10-01T22:39:42.826Z,85.49
2022-10-01T22:42:55.378Z,86.30
2022-10-01T22:46:14.789Z,86.50
2022-10-01T22:49:23.838Z,87.17
2022-10-01T22:52:36.236Z,88.80
2022-10-01T22:56:11.236Z,89.95
2022-10-01T22:59:26.432Z,90.72
2022-10-01T23:02:38.932Z,90.63
2022-10-01T23:06:11.600Z,90.43
2022-10-01T23:09:20.253Z,90.06
2022-10-01T23:12:41.152Z,90.63
2022-10-01T23:15:49.766Z,91.11
2022-10-01T23:19:07.641Z,90.86
2022-10-01T23:22:35.193Z,91.01
2022-10-01T23:26:05.481Z,91.82
2022-10-01T23:29:43.581Z,90.96
2022-10-01T23:33:21.583Z,90.74
2022-10-01T23:37:04.889Z,91.62
2022-10-01T23:40:11.261Z,91.93
2022-10-01T23:43:26.015Z,91.80
2022-10-01T23:46:31.711Z,91.49
2022-10-01T23:49:37.445Z,91.96
2022-10-01T23:52:56.882Z,92.43
2022-10-01T23:56:29.463Z,92.30
